KPOF/POF METAR and TAF weather

Enter ICAO airport designator
Station Type Date Time Source
KPOF METAR 2020/07/05 15:53 UTC NOAA

KPOF 051553Z AUTO 00000KT 10SM CLR 31/21 A2995 RMK AO2 SLP136 T03060211


Station Type Date Time Source
KPOF Decoded METAR 2020/07/05 15:53 UTC NOAA

POPLAR BLUFF MUN AIRPORT, MO, United States (KPOF) 36-46N 090-19W 100M
Jul 05, 2020 - 11:53 AM EDT / 2020.07.05 1553 UTC
Wind: Calm:0
Visibility: 10 mile(s):0
Sky conditions: clear
Temperature: 87.1 F (30.6 C)
Dew Point: 70.0 F (21.1 C)
Relative Humidity: 56%
Pressure (altimeter): 29.95 in. Hg (1014 hPa)
ob: KPOF 051553Z AUTO 00000KT 10SM CLR 31/21 A2995 RMK AO2 SLP136 T03060211
cycle: 16

Station Type Date Time Source
KPOF TAF UTC NOAA

Error!

Example: see airport list